Time;durP1;ratioP1;P1;durP2;ratioP2;P2;SDS_P1;SDS_P2;PMS_P1;PMS_P2;Temp;Humidity;BMP_temperature;BMP_pressure;BME280_temperature;BME280_humidity;BME280_pressure;Samples;Min_cycle;Max_cycle;Signal;HPM_P1;HPM_P2
2022/06/11 00:01:12;;;;;;;27.20;23.02;;;;;;;18.71;54.03;100194.38;1733557;81;21751;-66
2022/06/11 00:03:39;;;;;;;25.68;23.07;;;;;;;18.68;54.08;100186.75;1735878;81;21093;-65
2022/06/11 00:06:06;;;;;;;27.90;22.40;;;;;;;18.66;54.28;100190.23;1735681;81;21170;-66
2022/06/11 00:08:33;;;;;;;26.93;24.18;;;;;;;18.59;54.16;100190.41;1744609;81;21041;-67
2022/06/11 00:11:00;;;;;;;26.12;23.40;;;;;;;18.56;54.13;100185.49;1736539;81;21093;-66
2022/06/11 00:13:27;;;;;;;26.37;23.77;;;;;;;18.57;54.42;100189.00;1738329;81;21010;-65
2022/06/11 00:15:55;;;;;;;25.88;23.20;;;;;;;18.54;54.82;100190.32;1737011;81;21138;-67
2022/06/11 00:18:26;;;;;;;25.95;22.77;;;;;;;18.51;55.18;100184.59;1738422;81;21037;-66
2022/06/11 00:20:52;;;;;;;25.55;23.02;;;;;;;18.45;55.13;100187.19;1744917;81;21645;-66
2022/06/11 00:23:19;;;;;;;25.88;23.15;;;;;;;18.39;55.49;100186.83;1740134;81;22243;-67
2022/06/11 00:25:46;;;;;;;26.17;23.50;;;;;;;18.37;55.03;100183.56;1744835;81;21054;-66
2022/06/11 00:28:13;;;;;;;28.10;25.15;;;;;;;18.39;55.19;100189.53;1741033;81;21138;-67
2022/06/11 00:30:40;;;;;;;27.77;24.98;;;;;;;18.38;54.50;100193.81;1734918;81;21156;-66
2022/06/11 00:33:07;;;;;;;26.87;24.25;;;;;;;18.40;54.17;100187.13;1712461;81;21566;-66
2022/06/11 00:35:37;;;;;;;25.82;23.07;;;;;;;18.47;54.21;100190.47;1736444;81;21032;-65
2022/06/11 00:38:05;;;;;;;26.10;23.32;;;;;;;18.52;54.67;100195.14;1745030;81;21198;-64
2022/06/11 00:40:34;;;;;;;28.42;23.77;;;;;;;18.50;54.99;100198.62;1741330;81;21049;-66
2022/06/11 00:43:06;;;;;;;26.77;24.02;;;;;;;18.49;55.23;100191.58;1736625;81;21082;-66
2022/06/11 00:45:59;;;;;;;26.07;23.42;;;;;;;18.48;55.11;100201.56;1744351;81;21067;-66
2022/06/11 00:48:31;;;;;;;25.08;22.37;;;;;;;18.47;55.14;100196.40;1734035;81;21135;-66
2022/06/11 00:51:07;;;;;;;28.45;23.10;;;;;;;18.43;55.43;100197.42;1747134;81;20995;-66
2022/06/11 00:53:48;;;;;;;26.05;23.50;;;;;;;18.41;55.52;100202.24;1742532;81;21117;-67
2022/06/11 00:56:26;;;;;;;27.93;24.40;;;;;;;18.38;55.78;100198.67;1736540;81;20998;-66
2022/06/11 00:58:59;;;;;;;27.65;24.77;;;;;;;18.34;56.00;100201.58;1732216;81;21049;-65
2022/06/11 01:01:26;;;;;;;25.17;22.45;;;;;;;18.32;56.50;100203.70;1728436;81;21021;-67
2022/06/11 01:03:59;;;;;;;25.48;22.87;;;;;;;18.32;56.75;100206.94;1730350;81;21001;-66
2022/06/11 01:06:44;;;;;;;27.27;24.40;;;;;;;18.26;57.07;100209.53;1737993;81;21094;-66
2022/06/11 01:09:35;;;;;;;26.20;23.38;;;;;;;18.21;57.16;100215.36;1741569;81;21645;-64
2022/06/11 01:12:28;;;;;;;26.07;23.38;;;;;;;18.16;57.68;100207.17;1738300;81;21090;-66
2022/06/11 01:15:16;;;;;;;26.48;23.35;;;;;;;18.13;58.13;100218.46;1736793;81;21089;-65
2022/06/11 01:17:50;;;;;;;26.37;23.57;;;;;;;18.09;58.04;100216.77;1736400;81;21132;-65
2022/06/11 01:20:23;;;;;;;26.20;23.57;;;;;;;18.05;58.44;100216.44;1740754;81;21029;-67
2022/06/11 01:23:15;;;;;;;27.55;24.85;;;;;;;18.05;58.83;100213.73;1740953;81;21096;-66
2022/06/11 01:26:07;;;;;;;26.95;23.73;;;;;;;18.03;58.93;100211.81;1732450;81;21041;-67
2022/06/11 01:29:00;;;;;;;27.02;24.30;;;;;;;17.97;59.07;100219.52;1733808;81;21042;-65
2022/06/11 01:31:48;;;;;;;26.27;23.92;;;;;;;17.90;59.40;100220.19;1700808;82;22290;-65
2022/06/11 01:34:32;;;;;;;27.10;24.35;;;;;;;17.84;59.28;100234.09;1668472;84;21077;-66
2022/06/11 01:37:22;;;;;;;27.70;24.80;;;;;;;17.82;59.03;100232.64;1693590;82;21097;-65
2022/06/11 01:39:59;;;;;;;30.05;26.87;;;;;;;17.79;58.98;100231.26;1690020;82;21067;-64
2022/06/11 01:42:55;;;;;;;27.82;25.02;;;;;;;17.77;59.64;100229.33;1702630;82;21108;-64
2022/06/11 01:45:30;;;;;;;30.88;25.82;;;;;;;17.75;59.54;100231.98;1692131;82;21597;-64
2022/06/11 01:47:59;;;;;;;26.70;24.10;;;;;;;17.73;59.77;100243.53;1702962;82;21114;-64
2022/06/11 01:50:29;;;;;;;27.30;24.47;;;;;;;17.69;59.36;100236.45;1698420;82;21065;-65
2022/06/11 01:53:20;;;;;;;30.82;24.12;;;;;;;17.70;60.13;100244.27;1699600;82;21094;-66
2022/06/11 01:56:18;;;;;;;27.55;24.52;;;;;;;17.71;60.15;100243.77;1712613;82;21046;-65
2022/06/11 01:59:00;;;;;;;27.27;24.55;;;;;;;17.74;60.69;100240.58;1657870;85;21073;-66
2022/06/11 02:01:32;;;;;;;25.20;22.65;;;;;;;17.77;60.85;100239.30;1706161;82;21030;-66
2022/06/11 02:04:17;;;;;;;26.48;23.85;;;;;;;17.76;60.80;100238.46;1712300;82;21070;-65
2022/06/11 02:06:55;;;;;;;27.73;24.77;;;;;;;17.76;60.80;100238.46;1704635;82;21054;-66
2022/06/11 02:09:52;;;;;;;28.05;24.05;;;;;;;17.83;60.70;100242.39;1712421;82;21105;-66
2022/06/11 02:12:44;;;;;;;28.65;25.32;;;;;;;17.79;60.86;100242.05;1707057;82;21087;-66
2022/06/11 02:15:20;;;;;;;26.00;23.42;;;;;;;17.77;60.82;100239.30;1690897;82;21041;-67
2022/06/11 02:17:52;;;;;;;27.17;24.67;;;;;;;17.84;60.70;100240.84;1700708;83;21543;-68
2022/06/11 02:20:32;;;;;;;27.37;24.52;;;;;;;18.03;60.57;100242.02;1672533;83;21137;-66
2022/06/11 02:23:28;;;;;;;25.12;22.60;;;;;;;18.32;60.44;100242.01;1691397;83;21032;-66
2022/06/11 02:25:59;;;;;;;27.70;24.92;;;;;;;18.68;59.44;100241.59;1701340;82;21565;-66
2022/06/11 02:28:29;;;;;;;26.33;23.73;;;;;;;19.08;58.67;100247.92;1697302;82;21049;-66
2022/06/11 02:31:01;;;;;;;26.02;23.42;;;;;;;19.48;57.67;100246.87;1673171;82;21037;-66
2022/06/11 02:33:32;;;;;;;25.45;23.05;;;;;;;19.60;56.54;100201.59;1699103;80;21046;-65
2022/06/11 02:36:09;;;;;;;24.52;22.25;;;;;;;20.30;55.36;100251.91;1695654;84;21046;-66
2022/06/11 02:38:36;;;;;;;24.82;22.60;;;;;;;20.67;54.10;100249.88;1681590;85;21046;-66
2022/06/11 02:41:07;;;;;;;25.85;23.42;;;;;;;21.04;52.90;100251.80;1723216;82;21251;-65
2022/06/11 02:43:35;;;;;;;27.00;23.67;;;;;;;21.39;52.22;100254.45;1684855;84;21019;-66
2022/06/11 02:46:40;;;;;;;24.90;22.30;;;;;;;21.76;51.22;100256.31;1686554;83;20971;-65
2022/06/11 02:48:32;;;;;;;25.85;23.42;;;;;;;22.13;50.25;100258.05;1694263;83;21042;-66
2022/06/11 02:50:58;;;;;;;24.12;21.95;;;;;;;22.49;49.57;100252.73;1698071;83;21523;-66
2022/06/11 02:53:26;;;;;;;24.07;21.77;;;;;;;22.83;48.69;100249.48;1698693;83;21634;-66
2022/06/11 02:55:52;;;;;;;24.87;22.10;;;;;;;23.22;47.60;100245.67;1680723;84;21011;-66
2022/06/11 02:58:18;;;;;;;23.32;21.12;;;;;;;23.64;46.73;100250.45;1720642;82;21150;-65
2022/06/11 03:00:48;;;;;;;23.95;21.75;;;;;;;24.02;45.79;100253.61;1697823;83;21186;-65
2022/06/11 03:03:14;;;;;;;24.02;21.48;;;;;;;24.38;45.05;100250.67;1685983;84;21080;-66
2022/06/11 03:05:41;;;;;;;25.37;22.25;;;;;;;24.78;44.14;100246.05;1738962;81;21054;-65
2022/06/11 03:08:09;;;;;;;26.25;23.90;;;;;;;25.18;43.35;100255.75;1739736;81;21091;-65
2022/06/11 03:10:37;;;;;;;20.60;18.77;;;;;;;25.55;42.49;100262.49;1738221;81;21007;-66
2022/06/11 03:13:05;;;;;;;19.42;17.62;;;;;;;25.90;38.63;100254.98;1743235;81;21475;-66
2022/06/11 03:15:31;;;;;;;21.37;19.23;;;;;;;26.32;37.75;100255.27;1741724;81;21070;-66
2022/06/11 03:17:58;;;;;;;18.73;15.55;;;;;;;26.70;37.73;100257.98;1737015;81;21034;-66
2022/06/11 03:20:30;;;;;;;14.95;13.68;;;;;;;27.10;34.55;100254.29;1732403;81;21735;-66
2022/06/11 03:23:00;;;;;;;15.18;13.98;;;;;;;27.50;33.38;100245.91;1743706;81;21546;-67
2022/06/11 03:25:26;;;;;;;16.07;14.58;;;;;;;27.86;31.91;100249.82;1738206;81;21129;-66
2022/06/11 03:27:53;;;;;;;19.65;14.45;;;;;;;28.18;31.14;100253.55;1747277;81;21011;-66
2022/06/11 03:30:20;;;;;;;15.85;14.25;;;;;;;28.43;30.92;100245.31;1744518;81;21075;-65
2022/06/11 03:32:46;;;;;;;14.78;13.28;;;;;;;28.67;30.18;100249.95;1734432;81;21040;-65
2022/06/11 03:35:13;;;;;;;14.50;13.20;;;;;;;28.90;29.68;100247.20;1740009;81;21034;-66
2022/06/11 03:37:40;;;;;;;13.13;11.80;;;;;;;29.18;29.04;100249.23;1740683;81;21466;-65
2022/06/11 03:40:09;;;;;;;14.45;13.00;;;;;;;29.43;29.04;100249.66;1741757;81;21011;-67
2022/06/11 03:42:35;;;;;;;15.20;13.78;;;;;;;29.66;28.63;100242.94;1727281;81;21527;-68
2022/06/11 03:45:05;;;;;;;13.70;12.50;;;;;;;29.91;29.05;100252.16;1742666;81;21133;-66
2022/06/11 03:47:36;;;;;;;15.30;12.68;;;;;;;30.11;28.29;100254.28;1736777;81;21086;-66
2022/06/11 03:50:01;;;;;;;14.35;12.73;;;;;;;30.28;28.35;100258.98;1744122;81;21010;-66
2022/06/11 03:52:29;;;;;;;16.65;12.45;;;;;;;30.45;27.52;100260.38;1746966;81;21078;-65
2022/06/11 03:54:57;;;;;;;12.88;10.75;;;;;;;30.65;27.35;100258.13;1741438;81;21090;-66
2022/06/11 03:57:24;;;;;;;12.98;11.20;;;;;;;30.85;27.13;100248.36;1743805;81;22468;-64
2022/06/11 03:59:51;;;;;;;11.73;10.63;;;;;;;31.06;26.71;100245.73;1754456;81;21566;-67
2022/06/11 04:02:18;;;;;;;14.85;11.03;;;;;;;31.22;25.92;100243.27;1735217;81;21050;-66
2022/06/11 04:04:44;;;;;;;11.15;10.05;;;;;;;31.37;26.21;100247.42;1739554;81;21168;-66
2022/06/11 04:07:12;;;;;;;11.40;10.13;;;;;;;31.54;25.53;100251.49;1749572;81;21066;-65
2022/06/11 04:09:43;;;;;;;10.00;9.08;;;;;;;31.68;26.00;100257.33;1745484;81;21058;-65
2022/06/11 04:12:15;;;;;;;11.28;10.32;;;;;;;31.72;25.81;100248.09;1737174;81;21727;-65
2022/06/11 04:14:46;;;;;;;13.08;9.30;;;;;;;31.74;25.55;100252.69;1746058;81;21133;-65
2022/06/11 04:17:23;;;;;;;10.72;9.63;;;;;;;31.88;25.21;100252.43;1738267;81;20939;-65
2022/06/11 04:19:51;;;;;;;14.33;10.03;;;;;;;31.94;25.25;100255.22;1733172;81;21038;-66
2022/06/11 04:22:19;;;;;;;11.60;10.40;;;;;;;31.99;24.88;100252.27;1742443;81;21481;-65
2022/06/11 04:24:47;;;;;;;10.75;9.60;;;;;;;32.07;24.82;100250.63;1745510;81;21176;-66
2022/06/11 04:27:18;;;;;;;14.00;9.68;;;;;;;32.16;24.80;100250.57;1747513;81;21581;-66
2022/06/11 04:29:49;;;;;;;10.95;9.08;;;;;;;31.99;24.69;100214.27;1746811;81;21125;-65
2022/06/11 04:32:18;;;;;;;10.78;9.20;;;;;;;32.30;24.72;100252.46;1738941;81;21046;-67
2022/06/11 04:34:48;;;;;;;12.05;8.03;;;;;;;32.35;24.42;100255.61;1731719;81;21057;-65
2022/06/11 04:37:18;;;;;;;8.50;7.72;;;;;;;32.40;24.58;100256.20;1735276;81;21038;-65
2022/06/11 04:39:49;;;;;;;12.37;8.48;;;;;;;32.52;24.15;100255.45;1727649;81;21628;-66
2022/06/11 04:42:17;;;;;;;10.28;7.92;;;;;;;32.69;23.83;100252.33;1738352;81;21011;-65
2022/06/11 04:44:45;;;;;;;9.00;7.75;;;;;;;32.76;24.32;100255.34;1742630;81;21550;-64
2022/06/11 04:47:15;;;;;;;8.50;7.62;;;;;;;32.89;23.94;100258.37;1744226;81;21031;-66
2022/06/11 04:49:41;;;;;;;9.13;8.08;;;;;;;32.97;24.33;100258.04;1745920;81;21050;-68
2022/06/11 04:52:09;;;;;;;14.87;7.72;;;;;;;32.95;24.08;100259.75;1739317;81;21482;-66
2022/06/11 04:54:36;;;;;;;8.15;7.35;;;;;;;32.87;23.56;100254.31;1753622;81;21026;-67
2022/06/11 04:57:03;;;;;;;8.60;7.70;;;;;;;32.74;24.17;100253.50;1720886;81;21155;-67
2022/06/11 04:59:32;;;;;;;8.08;7.28;;;;;;;32.68;24.30;100259.80;1745652;81;21093;-66
2022/06/11 05:02:01;;;;;;;11.05;7.10;;;;;;;32.66;23.84;100256.55;1738863;81;21140;-66
2022/06/11 05:04:28;;;;;;;8.33;6.50;;;;;;;32.63;23.18;100250.93;1743998;81;21030;-65
2022/06/11 05:06:56;;;;;;;10.65;6.72;;;;;;;32.64;23.01;100254.70;1739468;81;21077;-64
2022/06/11 05:09:25;;;;;;;6.37;5.78;;;;;;;32.72;23.09;100260.73;1743800;81;20995;-66
2022/06/11 05:11:53;;;;;;;8.45;6.08;;;;;;;32.75;23.52;100257.27;1731715;81;21006;-65
2022/06/11 05:14:22;;;;;;;10.25;5.95;;;;;;;32.75;23.33;100256.47;1744693;81;21716;-63
2022/06/11 05:16:52;;;;;;;7.78;6.67;;;;;;;32.78;23.49;100259.36;1738407;81;21030;-63
2022/06/11 05:19:20;;;;;;;11.97;6.87;;;;;;;32.90;22.74;100256.41;1743146;81;21083;-63
2022/06/11 05:21:48;;;;;;;8.60;6.53;;;;;;;32.91;22.59;100256.66;1742784;81;21054;-65
2022/06/11 05:24:15;;;;;;;8.50;6.37;;;;;;;32.91;22.79;100260.80;1731404;81;21160;-62
2022/06/11 05:26:53;;;;;;;8.40;6.78;;;;;;;33.05;22.07;100262.64;1742655;81;21002;-62
2022/06/11 05:29:25;;;;;;;7.22;6.40;;;;;;;33.21;22.32;100264.77;1743908;81;21134;-62
2022/06/11 05:31:53;;;;;;;6.90;6.20;;;;;;;33.36;21.61;100269.61;1738132;81;21335;-66
2022/06/11 05:34:19;;;;;;;9.18;6.90;;;;;;;33.44;21.72;100271.48;1746279;81;21057;-62
2022/06/11 05:36:46;;;;;;;7.53;6.53;;;;;;;33.48;21.61;100279.30;1732875;81;20973;-62
2022/06/11 05:39:13;;;;;;;11.03;6.30;;;;;;;33.39;21.80;100276.42;1744779;81;21109;-62
2022/06/11 05:41:40;;;;;;;8.53;6.42;;;;;;;33.34;22.39;100271.36;1741035;81;21007;-62
2022/06/11 05:44:06;;;;;;;9.40;6.22;;;;;;;33.44;22.33;100270.09;1741464;81;21526;-64
2022/06/11 05:46:35;;;;;;;7.15;6.35;;;;;;;33.62;21.45;100265.71;1738715;81;21562;-61
2022/06/11 05:49:07;;;;;;;11.08;7.22;;;;;;;33.79;22.49;100266.08;1742494;81;21757;-63
2022/06/11 05:51:40;;;;;;;14.03;6.83;;;;;;;33.93;21.31;100265.14;1738282;81;21050;-65
2022/06/11 05:54:12;;;;;;;10.13;6.78;;;;;;;34.05;21.45;100266.48;1737441;81;21158;-63
2022/06/11 05:56:39;;;;;;;11.15;7.15;;;;;;;34.13;21.23;100262.80;1716936;82;21033;-64
2022/06/11 05:59:11;;;;;;;10.60;7.30;;;;;;;34.07;21.24;100261.41;1665501;84;21092;-64
2022/06/11 06:01:40;;;;;;;10.28;6.65;;;;;;;34.16;21.56;100265.46;1668051;85;21252;-62
2022/06/11 06:04:07;;;;;;;8.20;7.03;;;;;;;34.26;20.81;100256.66;1701803;83;21095;-62
2022/06/11 06:06:35;;;;;;;8.80;6.67;;;;;;;34.38;20.54;100257.22;1704684;83;21081;-61
2022/06/11 06:09:23;;;;;;;12.15;6.47;;;;;;;34.60;20.74;100259.19;1693095;83;21057;-63
2022/06/11 06:11:50;;;;;;;8.23;6.87;;;;;;;34.47;19.87;100230.20;1642322;85;21104;-63
2022/06/11 06:14:17;;;;;;;8.15;7.28;;;;;;;34.54;19.18;100254.48;1659128;85;21179;-63
2022/06/11 06:16:44;;;;;;;9.08;7.10;;;;;;;34.30;19.28;100254.83;1657132;85;21060;-63
2022/06/11 06:19:11;;;;;;;9.78;6.42;;;;;;;34.14;19.81;100258.86;1655870;85;21702;-64
2022/06/11 06:21:38;;;;;;;10.23;7.28;;;;;;;34.16;20.27;100260.48;1660755;85;21050;-67
2022/06/11 06:24:06;;;;;;;8.20;7.20;;;;;;;34.31;19.18;100257.00;1662744;85;21066;-62
2022/06/11 06:26:33;;;;;;;8.75;7.00;;;;;;;34.50;19.79;100260.50;1679871;85;21163;-62
2022/06/11 06:29:00;;;;;;;12.33;8.10;;;;;;;34.66;19.34;100251.67;1675017;85;21060;-61
2022/06/11 06:31:27;;;;;;;10.38;8.05;;;;;;;34.63;18.94;100252.37;1668666;85;21059;-63
2022/06/11 06:33:53;;;;;;;9.18;8.28;;;;;;;34.40;18.33;100251.33;1672300;85;21528;-65
2022/06/11 06:36:20;;;;;;;13.50;9.43;;;;;;;34.13;19.03;100260.03;1668569;85;21010;-62
2022/06/11 06:40:17;;;;;;;11.80;8.88;;;;;;;33.78;19.18;100252.84;1794426;79;22487;-64
2022/06/11 06:42:44;;;;;;;10.38;9.23;;;;;;;33.71;19.44;100253.99;1749655;80;21497;-61
2022/06/11 06:45:10;;;;;;;9.63;8.80;;;;;;;33.89;19.01;100252.59;1664646;83;21403;-64
2022/06/11 06:47:38;;;;;;;11.43;9.80;;;;;;;34.11;18.09;100250.45;1640093;86;21126;-65
2022/06/11 06:50:06;;;;;;;11.65;10.58;;;;;;;34.21;18.24;100251.95;1640057;86;21081;-63
2022/06/11 06:52:32;;;;;;;11.28;10.23;;;;;;;34.26;18.22;100256.66;1661596;84;21013;-63
2022/06/11 06:54:59;;;;;;;12.60;11.45;;;;;;;34.32;17.99;100255.83;1662541;84;21069;-63
2022/06/11 06:57:25;;;;;;;11.93;10.75;;;;;;;34.32;17.78;100255.28;1665561;84;21045;-67
2022/06/11 06:59:52;;;;;;;9.43;8.50;;;;;;;34.23;17.99;100264.30;1664270;84;21043;-62
2022/06/11 07:02:18;;;;;;;10.58;9.45;;;;;;;34.11;17.84;100256.81;1636542;86;21069;-65
2022/06/11 07:04:45;;;;;;;10.43;9.45;;;;;;;34.15;17.96;100256.89;1635094;86;21065;-63
2022/06/11 07:07:17;;;;;;;9.13;8.33;;;;;;;34.26;17.43;100246.17;1632165;86;21178;-63
2022/06/11 07:09:44;;;;;;;7.95;6.25;;;;;;;34.25;17.31;100257.83;1634660;86;21145;-64
2022/06/11 07:12:11;;;;;;;7.20;6.05;;;;;;;34.19;17.06;100258.41;1634278;86;21091;-63
2022/06/11 07:14:37;;;;;;;6.55;5.92;;;;;;;33.98;16.91;100264.09;1612896;87;21095;-64
2022/06/11 07:17:07;;;;;;;6.90;6.40;;;;;;;33.47;17.13;100263.86;1630927;86;21133;-63
2022/06/11 07:19:39;;;;;;;7.17;6.60;;;;;;;33.16;18.20;100261.08;1639932;86;21115;-64
2022/06/11 07:22:10;;;;;;;6.92;6.42;;;;;;;33.28;18.14;100259.48;1630693;85;21075;-61
2022/06/11 07:24:40;;;;;;;10.55;6.05;;;;;;;33.40;18.21;100258.68;1639189;86;21142;-61
2022/06/11 07:27:12;;;;;;;5.33;4.83;;;;;;;33.38;18.26;100254.91;1621605;87;21082;-63
2022/06/11 07:29:52;;;;;;;6.25;5.42;;;;;;;33.35;17.76;100256.38;1630188;86;21114;-65
2022/06/11 07:32:21;;;;;;;5.45;4.83;;;;;;;33.33;17.94;100257.89;1617514;87;21108;-63
2022/06/11 07:34:48;;;;;;;6.10;5.65;;;;;;;33.42;18.55;100257.76;1606484;87;21065;-63
2022/06/11 07:37:15;;;;;;;5.33;4.55;;;;;;;33.44;17.99;100252.72;1667323;85;21127;-63
2022/06/11 07:39:42;;;;;;;8.03;7.28;;;;;;;33.46;17.81;100250.41;1657598;85;21067;-62
2022/06/11 07:42:10;;;;;;;9.68;7.50;;;;;;;33.42;18.15;100255.00;1640390;85;21782;-64
2022/06/11 07:44:38;;;;;;;9.83;8.85;;;;;;;33.18;18.64;100249.70;1653257;85;21063;-63
2022/06/11 07:47:06;;;;;;;4.33;3.92;;;;;;;32.93;18.21;100252.39;1652239;85;21071;-62
2022/06/11 07:49:32;;;;;;;4.17;3.35;;;;;;;32.54;18.10;100260.63;1657602;85;21652;-63
2022/06/11 07:52:00;;;;;;;5.97;3.60;;;;;;;32.23;17.90;100255.53;1648178;85;21095;-62
2022/06/11 07:54:26;;;;;;;5.45;4.58;;;;;;;32.00;18.14;100258.59;1660677;85;21591;-65
2022/06/11 07:56:52;;;;;;;8.08;4.97;;;;;;;31.88;18.16;100256.56;1679930;84;21046;-62
2022/06/11 07:59:18;;;;;;;6.30;4.53;;;;;;;31.81;18.28;100260.41;1691386;83;21002;-66
2022/06/11 08:01:44;;;;;;;6.75;4.05;;;;;;;31.74;18.47;100255.45;1666192;84;21156;-66
2022/06/11 08:04:12;;;;;;;3.60;3.40;;;;;;;31.71;18.74;100256.68;1681523;84;22625;-64
2022/06/11 08:06:38;;;;;;;5.83;3.77;;;;;;;31.69;19.06;100257.01;1651682;85;21518;-66
2022/06/11 08:09:07;;;;;;;5.15;4.65;;;;;;;31.69;19.00;100263.09;1666127;84;21132;-65
2022/06/11 08:11:34;;;;;;;4.95;4.50;;;;;;;31.63;18.82;100253.63;1669264;84;21241;-66
2022/06/11 08:14:00;;;;;;;4.40;4.00;;;;;;;31.58;18.83;100253.81;1681354;83;21092;-66
2022/06/11 08:16:27;;;;;;;5.35;3.70;;;;;;;31.54;18.97;100247.36;1683457;84;21151;-67
2022/06/11 08:18:54;;;;;;;4.50;3.92;;;;;;;31.43;19.05;100245.52;1678234;84;21136;-65
2022/06/11 08:21:20;;;;;;;5.42;4.10;;;;;;;31.40;18.82;100253.63;1663656;84;21596;-66
2022/06/11 08:23:46;;;;;;;4.53;4.20;;;;;;;31.35;19.30;100245.57;1636880;84;21082;-65
2022/06/11 08:26:13;;;;;;;5.55;4.42;;;;;;;31.35;19.59;100246.95;1621930;87;21048;-62
2022/06/11 08:28:39;;;;;;;4.22;3.92;;;;;;;31.39;19.94;100246.52;1617361;87;21067;-67
2022/06/11 08:31:05;;;;;;;5.70;4.58;;;;;;;31.47;19.56;100251.20;1617921;87;21482;-65
2022/06/11 08:33:33;;;;;;;3.72;3.37;;;;;;;31.43;19.17;100253.77;1622980;86;21082;-69
2022/06/11 08:35:59;;;;;;;7.97;3.35;;;;;;;31.28;19.13;100245.27;1646059;86;21231;-63
2022/06/11 08:38:26;;;;;;;8.30;3.67;;;;;;;31.14;19.05;100249.05;1642901;86;21119;-61
2022/06/11 08:40:55;;;;;;;4.25;3.72;;;;;;;31.08;19.05;100255.88;1637490;86;21113;-63
2022/06/11 08:43:33;;;;;;;3.58;3.27;;;;;;;31.04;19.01;100254.89;1635549;86;21078;-62
2022/06/11 08:46:04;;;;;;;4.00;3.62;;;;;;;31.00;18.97;100249.23;1649063;84;22211;-63
2022/06/11 08:48:49;;;;;;;3.47;3.08;;;;;;;30.95;18.81;100248.60;1651335;85;21185;-64
2022/06/11 08:51:30;;;;;;;5.67;3.50;;;;;;;30.88;18.92;100252.42;1659265;84;21189;-60
2022/06/11 08:54:02;;;;;;;6.15;4.37;;;;;;;30.73;19.25;100239.41;1657175;84;21106;-65
2022/06/11 08:56:34;;;;;;;6.95;3.52;;;;;;;30.62;19.31;100238.13;1665231;84;21568;-66
2022/06/11 08:59:48;;;;;;;4.08;3.77;;;;;;;30.60;19.08;100231.58;1667280;84;21057;-63
2022/06/11 09:02:58;;;;;;;6.28;4.00;;;;;;;30.64;19.04;100235.86;1665399;84;21077;-60
2022/06/11 09:05:57;;;;;;;3.77;3.47;;;;;;;30.70;18.92;100238.67;1663567;84;21098;-62
2022/06/11 09:08:50;;;;;;;5.12;3.75;;;;;;;30.65;19.05;100233.37;1665935;84;21029;-62
2022/06/11 09:11:58;;;;;;;4.30;2.90;;;;;;;30.64;19.25;100226.23;1664784;84;21097;-63
2022/06/11 09:14:36;;;;;;;5.37;2.75;;;;;;;30.72;19.31;100243.86;1663423;84;21050;-66
2022/06/11 09:17:55;;;;;;;3.33;2.50;;;;;;;30.70;19.26;100238.67;1658202;84;21208;-65
2022/06/11 09:20:37;;;;;;;;;;;;;;;30.57;19.42;100226.75;1661381;84;21094;-61
2022/06/11 09:23:31;;;;;;;;;;;;;;;30.41;19.89;100220.13;1673598;84;20206;-62
2022/06/11 09:26:14;;;;;;;;;;;;;;;30.37;20.19;100219.16;1669315;84;20239;-63
2022/06/11 09:28:44;;;;;;;;;;;;;;;30.44;20.11;100222.20;1674811;84;20143;-63
2022/06/11 09:31:23;;;;;;;;;;;;;;;30.55;19.91;100219.36;1675369;84;20159;-62
2022/06/11 09:33:59;;;;;;;;;;;;;;;30.65;19.83;100223.73;1636882;86;20100;-61
2022/06/11 09:36:33;;;;;;;;;;;;;;;30.72;19.46;100225.40;1634299;86;20286;-62
2022/06/11 09:39:18;;;;;;;;;;;;;;;30.77;19.19;100233.48;1629550;86;20194;-62
2022/06/11 09:41:54;;;;;;;;;;;;;;;30.68;19.18;100225.81;1595539;87;20201;-65
2022/06/11 09:44:30;;;;;;;;;;;;;;;30.56;19.21;100214.69;1627306;86;20497;-63
2022/06/11 09:47:06;;;;;;;;;;;;;;;30.43;19.54;100217.28;1628339;86;20438;-62
2022/06/11 09:49:49;;;;;;;;;;;;;;;30.39;19.61;100221.82;1639626;86;20442;-63
2022/06/11 09:52:20;;;;;;;;;;;;;;;30.32;19.11;100218.74;1644157;86;20145;-59
2022/06/11 09:54:52;;;;;;;;;;;;;;;30.22;18.67;100217.68;1636058;86;20412;-61
2022/06/11 09:57:42;;;;;;;;;;;;;;;30.16;18.86;100211.53;1637662;86;20139;-59
2022/06/11 10:00:24;;;;;;;;;;;;;;;30.20;18.88;100210.33;1601355;88;20440;-60
2022/06/11 10:05:47;;;;;;;;;;;;;;;30.32;19.05;100205.54;1597560;88;20190;-61
2022/06/11 10:08:23;;;;;;;;;;;;;;;30.35;19.00;100204.36;1597415;88;20553;-64
2022/06/11 10:10:50;;;;;;;;;;;;;;;30.39;19.34;100208.07;1600662;88;20164;-65
2022/06/11 10:13:39;;;;;;;;;;;;;;;30.42;18.86;100206.05;1607828;87;20148;-63
2022/06/11 10:16:14;;;;;;;;;;;;;;;30.45;18.98;100204.59;1616857;87;20172;-62
2022/06/11 10:18:41;;;;;;;;;;;;;;;30.47;18.90;100201.74;1612971;87;20460;-63
2022/06/11 10:21:10;;;;;;;;;;;;;;;30.47;19.17;100209.19;1612671;87;20255;-63
2022/06/11 10:23:46;;;;;;;;;;;;;;;30.50;19.29;100204.42;1622702;87;20170;-63
2022/06/11 10:26:25;;;;;;;;;;;;;;;30.54;19.17;100194.38;1640132;86;20169;-63
2022/06/11 10:29:00;;;;;;;;;;;;;;;30.56;19.46;100194.86;1636416;86;20181;-64
2022/06/11 10:31:30;;;;;;;;;;;;;;;30.58;19.36;100190.42;1633546;86;20145;-61
2022/06/11 10:34:02;;;;;;;;;;;;;;;30.58;19.27;100184.34;1657694;85;20153;-71
2022/06/11 10:36:31;;;;;;;;;;;;;;;30.64;19.27;100195.40;1644725;85;20154;-65
2022/06/11 10:39:19;;;;;;;;;;;;;;;30.69;19.30;100184.01;1657877;85;20167;-61
2022/06/11 10:42:08;;;;;;;;;;;;;;;30.73;19.14;100177.51;1635573;85;20141;-67
2022/06/11 10:44:44;;;;;;;;;;;;;;;30.75;19.14;100179.94;1639952;85;20129;-62
2022/06/11 10:47:13;;;;;;;;;;;;;;;30.73;19.20;100171.20;1625308;87;20169;-65
2022/06/11 10:49:41;;;;;;;;;;;;;;;30.71;19.32;100174.28;1612156;88;20151;-64
2022/06/11 10:52:31;;;;;;;;;;;;;;;30.73;19.47;100177.51;1623837;87;20271;-68
2022/06/11 10:54:57;;;;;;;;;;;;;;;30.75;19.32;100163.44;1610059;87;20131;-65
2022/06/11 10:57:27;;;;;;;;;;;;;;;30.80;19.35;100168.77;1602899;89;20168;-63
2022/06/11 11:00:02;;;;;;;;;;;;;;;30.82;19.02;100176.92;1639054;86;20147;-63
2022/06/11 11:02:53;;;;;;;;;;;;;;;30.73;18.84;100152.75;1602361;88;20473;-63
2022/06/11 11:05:21;;;;;;;;;;;;;;;30.80;18.79;100172.31;1646712;86;20090;-66
2022/06/11 11:08:02;;;;;;;;;;;;;;;30.74;18.59;100170.89;1637077;86;20556;-66
2022/06/11 11:10:42;;;;;;;;;;;;;;;30.69;18.70;100168.88;1629741;86;20124;-67
2022/06/11 11:13:34;;;;;;;;;;;;;;;30.65;18.79;100164.59;1613890;85;20120;-63
2022/06/11 11:16:23;;;;;;;;;;;;;;;30.61;19.08;100162.23;1606178;88;20432;-68
2022/06/11 11:18:53;;;;;;;;;;;;;;;30.61;19.37;100158.94;1610655;88;20135;-69
2022/06/11 11:21:26;;;;;;;;;;;;;;;30.64;19.33;100152.77;1598919;88;20170;-68
2022/06/11 11:23:55;;;;;;;;;;;;;;;30.67;19.22;100149.95;1589603;87;20204;-64
2022/06/11 11:26:32;;;;;;;;;;;;;;;30.73;19.30;100145.87;1606509;88;20198;-63
2022/06/11 11:29:08;;;;;;;;;;;;;;;30.77;19.37;100146.83;1613853;88;20145;-62
2022/06/11 11:31:41;;;;;;;;;;;;;;;30.84;19.45;100156.76;1598069;88;20215;-64
2022/06/11 11:34:14;;;;;;;;;;;;;;;30.88;18.76;100150.61;1609705;86;20971;-63
2022/06/11 11:36:41;;;;;;;;;;;;;;;30.86;18.69;100152.31;1639596;86;20446;-62
2022/06/11 11:39:16;;;;;;;;;;;;;;;30.82;18.75;100154.91;1638124;86;20112;-62
2022/06/11 11:42:04;;;;;;;;;;;;;;;30.79;18.88;100154.75;1649199;86;20199;-64
2022/06/11 11:44:39;;;;;;;;;;;;;;;30.76;18.82;100145.23;1637205;85;20223;-65
2022/06/11 11:47:12;;;;;;;;;;;;;;;30.75;18.95;100139.47;1629808;86;20114;-63
2022/06/11 11:49:38;;;;;;;;;;;;;;;30.76;18.82;100134.22;1630578;86;20168;-62
2022/06/11 11:52:07;;;;;;;;;;;;;;;30.77;19.02;100135.02;1633058;86;20177;-64
2022/06/11 11:54:34;;;;;;;;;;;;;;;30.73;19.00;100127.99;1637040;86;20446;-64
2022/06/11 11:57:04;;;;;;;;;;;;;;;30.76;18.74;100125.14;1643414;85;20175;-65
2022/06/11 11:59:49;;;;;;;;;;;;;;;30.78;18.83;100129.20;1636160;86;20186;-65
2022/06/11 12:02:25;;;;;;;;;;;;;;;30.81;18.87;100127.72;1658272;85;20098;-65